sensor_id;sensor_type;location;lat;lon;timestamp;P1;durP1;ratioP1;P2;durP2;ratioP2
37151;SDS011;23046;50.112;8.952;2023-04-04T00:00:07;1.80;;;1.10;;
37151;SDS011;23046;50.112;8.952;2023-04-04T00:00:18;1.20;;;1.10;;
37151;SDS011;23046;50.112;8.952;2023-04-04T00:00:28;1.03;;;0.97;;
37151;SDS011;23046;50.112;8.952;2023-04-04T00:00:38;0.80;;;0.80;;
37151;SDS011;23046;50.112;8.952;2023-04-04T00:00:49;1.00;;;0.90;;
37151;SDS011;23046;50.112;8.952;2023-04-04T00:01:00;2.60;;;1.00;;
37151;SDS011;23046;50.112;8.952;2023-04-04T00:01:10;3.33;;;1.10;;
37151;SDS011;23046;50.112;8.952;2023-04-04T00:01:21;3.20;;;1.00;;
37151;SDS011;23046;50.112;8.952;2023-04-04T00:01:31;1.80;;;1.00;;
37151;SDS011;23046;50.112;8.952;2023-04-04T00:01:42;1.37;;;0.87;;
37151;SDS011;23046;50.112;8.952;2023-04-04T00:01:52;1.20;;;0.73;;
37151;SDS011;23046;50.112;8.952;2023-04-04T00:02:02;0.97;;;0.73;;
37151;SDS011;23046;50.112;8.952;2023-04-04T00:02:12;0.80;;;0.80;;
37151;SDS011;23046;50.112;8.952;2023-04-04T00:02:23;1.10;;;0.97;;
37151;SDS011;23046;50.112;8.952;2023-04-04T00:02:33;1.27;;;0.90;;
37151;SDS011;23046;50.112;8.952;2023-04-04T00:02:43;1.30;;;0.83;;
37151;SDS011;23046;50.112;8.952;2023-04-04T00:02:53;1.60;;;0.87;;
37151;SDS011;23046;50.112;8.952;2023-04-04T00:03:03;1.90;;;0.93;;
37151;SDS011;23046;50.112;8.952;2023-04-04T00:03:14;1.80;;;0.90;;
37151;SDS011;23046;50.112;8.952;2023-04-04T00:03:24;1.40;;;1.00;;
37151;SDS011;23046;50.112;8.952;2023-04-04T00:03:34;1.10;;;1.00;;
37151;SDS011;23046;50.112;8.952;2023-04-04T00:03:45;1.53;;;1.03;;
37151;SDS011;23046;50.112;8.952;2023-04-04T00:04:00;1.40;;;0.98;;
37151;SDS011;23046;50.112;8.952;2023-04-04T00:04:10;1.17;;;1.00;;
37151;SDS011;23046;50.112;8.952;2023-04-04T00:04:21;2.80;;;1.10;;
37151;SDS011;23046;50.112;8.952;2023-04-04T00:04:31;2.57;;;1.07;;
37151;SDS011;23046;50.112;8.952;2023-04-04T00:04:42;2.67;;;1.02;;
37151;SDS011;23046;50.112;8.952;2023-04-04T00:04:52;1.10;;;0.90;;
37151;SDS011;23046;50.112;8.952;2023-04-04T00:05:03;1.27;;;1.00;;
37151;SDS011;23046;50.112;8.952;2023-04-04T00:05:13;1.33;;;1.00;;
37151;SDS011;23046;50.112;8.952;2023-04-04T00:05:24;1.58;;;1.13;;
37151;SDS011;23046;50.112;8.952;2023-04-04T00:05:35;1.67;;;1.20;;
37151;SDS011;23046;50.112;8.952;2023-04-04T00:05:45;1.60;;;1.20;;
37151;SDS011;23046;50.112;8.952;2023-04-04T00:05:55;1.47;;;1.00;;
37151;SDS011;23046;50.112;8.952;2023-04-04T00:06:05;1.00;;;0.87;;
37151;SDS011;23046;50.112;8.952;2023-04-04T00:06:17;1.80;;;0.95;;
37151;SDS011;23046;50.112;8.952;2023-04-04T00:06:27;1.80;;;1.00;;
37151;SDS011;23046;50.112;8.952;2023-04-04T00:06:37;1.73;;;1.07;;
37151;SDS011;23046;50.112;8.952;2023-04-04T00:06:53;1.77;;;0.90;;
37151;SDS011;23046;50.112;8.952;2023-04-04T00:07:03;1.90;;;0.90;;
37151;SDS011;23046;50.112;8.952;2023-04-04T00:07:14;1.67;;;0.90;;
37151;SDS011;23046;50.112;8.952;2023-04-04T00:07:24;1.50;;;0.90;;
37151;SDS011;23046;50.112;8.952;2023-04-04T00:07:35;1.50;;;0.93;;
37151;SDS011;23046;50.112;8.952;2023-04-04T00:07:45;1.57;;;0.90;;
37151;SDS011;23046;50.112;8.952;2023-04-04T00:07:56;1.13;;;0.85;;
37151;SDS011;23046;50.112;8.952;2023-04-04T00:08:06;0.83;;;0.80;;
37151;SDS011;23046;50.112;8.952;2023-04-04T00:08:16;0.83;;;0.83;;
37151;SDS011;23046;50.112;8.952;2023-04-04T00:08:26;1.20;;;0.90;;
37151;SDS011;23046;50.112;8.952;2023-04-04T00:08:37;1.70;;;1.07;;
37151;SDS011;23046;50.112;8.952;2023-04-04T00:08:47;1.85;;;1.10;;
37151;SDS011;23046;50.112;8.952;2023-04-04T00:08:57;1.77;;;1.20;;
37151;SDS011;23046;50.112;8.952;2023-04-04T00:09:07;1.30;;;1.10;;
37151;SDS011;23046;50.112;8.952;2023-04-04T00:09:18;1.13;;;0.93;;
37151;SDS011;23046;50.112;8.952;2023-04-04T00:09:28;1.38;;;0.98;;
37151;SDS011;23046;50.112;8.952;2023-04-04T00:09:38;1.80;;;1.00;;
37151;SDS011;23046;50.112;8.952;2023-04-04T00:09:48;1.87;;;1.10;;
37151;SDS011;23046;50.112;8.952;2023-04-04T00:09:59;2.23;;;1.00;;
37151;SDS011;23046;50.112;8.952;2023-04-04T00:10:09;2.20;;;1.20;;
37151;SDS011;23046;50.112;8.952;2023-04-04T00:10:19;2.25;;;1.20;;
37151;SDS011;23046;50.112;8.952;2023-04-04T00:10:29;1.27;;;1.13;;
37151;SDS011;23046;50.112;8.952;2023-04-04T00:10:40;1.13;;;1.03;;
37151;SDS011;23046;50.112;8.952;2023-04-04T00:10:55;1.35;;;1.05;;
37151;SDS011;23046;50.112;8.952;2023-04-04T00:11:06;1.25;;;1.00;;
37151;SDS011;23046;50.112;8.952;2023-04-04T00:11:16;1.20;;;0.90;;
37151;SDS011;23046;50.112;8.952;2023-04-04T00:11:26;1.63;;;1.10;;
37151;SDS011;23046;50.112;8.952;2023-04-04T00:11:37;1.90;;;1.20;;
37151;SDS011;23046;50.112;8.952;2023-04-04T00:11:47;1.70;;;1.17;;
37151;SDS011;23046;50.112;8.952;2023-04-04T00:11:57;1.30;;;1.10;;
37151;SDS011;23046;50.112;8.952;2023-04-04T00:12:07;1.50;;;1.00;;
37151;SDS011;23046;50.112;8.952;2023-04-04T00:12:18;1.33;;;0.97;;
37151;SDS011;23046;50.112;8.952;2023-04-04T00:12:28;1.30;;;1.00;;
37151;SDS011;23046;50.112;8.952;2023-04-04T00:12:38;0.93;;;0.90;;
37151;SDS011;23046;50.112;8.952;2023-04-04T00:12:48;0.90;;;0.90;;
37151;SDS011;23046;50.112;8.952;2023-04-04T00:12:58;0.70;;;0.70;;
37151;SDS011;23046;50.112;8.952;2023-04-04T00:13:09;1.70;;;0.80;;
37151;SDS011;23046;50.112;8.952;2023-04-04T00:13:19;2.20;;;0.80;;
37151;SDS011;23046;50.112;8.952;2023-04-04T00:13:29;2.90;;;0.98;;
37151;SDS011;23046;50.112;8.952;2023-04-04T00:13:40;2.17;;;1.07;;
37151;SDS011;23046;50.112;8.952;2023-04-04T00:13:50;1.50;;;1.00;;
37151;SDS011;23046;50.112;8.952;2023-04-04T00:14:00;1.00;;;0.93;;
37151;SDS011;23046;50.112;8.952;2023-04-04T00:14:11;1.15;;;1.00;;
37151;SDS011;23046;50.112;8.952;2023-04-04T00:14:21;1.90;;;1.10;;
37151;SDS011;23046;50.112;8.952;2023-04-04T00:14:32;1.93;;;1.07;;
37151;SDS011;23046;50.112;8.952;2023-04-04T00:14:42;1.67;;;0.90;;
37151;SDS011;23046;50.112;8.952;2023-04-04T00:14:53;1.07;;;0.80;;
37151;SDS011;23046;50.112;8.952;2023-04-04T00:15:03;1.60;;;0.90;;
37151;SDS011;23046;50.112;8.952;2023-04-04T00:15:13;1.80;;;0.90;;
37151;SDS011;23046;50.112;8.952;2023-04-04T00:15:23;1.93;;;1.00;;
37151;SDS011;23046;50.112;8.952;2023-04-04T00:15:34;1.40;;;1.00;;
37151;SDS011;23046;50.112;8.952;2023-04-04T00:15:45;1.20;;;0.93;;
37151;SDS011;23046;50.112;8.952;2023-04-04T00:15:55;1.10;;;0.93;;
37151;SDS011;23046;50.112;8.952;2023-04-04T00:16:06;1.60;;;0.90;;
37151;SDS011;23046;50.112;8.952;2023-04-04T00:16:16;1.80;;;0.90;;
37151;SDS011;23046;50.112;8.952;2023-04-04T00:16:26;1.80;;;0.88;;
37151;SDS011;23046;50.112;8.952;2023-04-04T00:16:36;1.00;;;0.80;;
37151;SDS011;23046;50.112;8.952;2023-04-04T00:16:47;1.17;;;0.87;;
37151;SDS011;23046;50.112;8.952;2023-04-04T00:16:57;1.00;;;0.90;;
37151;SDS011;23046;50.112;8.952;2023-04-04T00:17:07;1.90;;;0.90;;
37151;SDS011;23046;50.112;8.952;2023-04-04T00:17:17;1.77;;;0.90;;
37151;SDS011;23046;50.112;8.952;2023-04-04T00:17:27;1.80;;;0.90;;
37151;SDS011;23046;50.112;8.952;2023-04-04T00:17:38;1.33;;;1.00;;
37151;SDS011;23046;50.112;8.952;2023-04-04T00:17:48;1.27;;;0.93;;
37151;SDS011;23046;50.112;8.952;2023-04-04T00:17:58;1.07;;;0.90;;
37151;SDS011;23046;50.112;8.952;2023-04-04T00:18:08;0.90;;;0.83;;
37151;SDS011;23046;50.112;8.952;2023-04-04T00:18:18;1.10;;;0.87;;
37151;SDS011;23046;50.112;8.952;2023-04-04T00:18:29;1.20;;;0.90;;
37151;SDS011;23046;50.112;8.952;2023-04-04T00:18:39;1.57;;;1.00;;
37151;SDS011;23046;50.112;8.952;2023-04-04T00:18:49;1.23;;;1.03;;
37151;SDS011;23046;50.112;8.952;2023-04-04T00:18:59;1.20;;;1.10;;
37151;SDS011;23046;50.112;8.952;2023-04-04T00:19:09;1.10;;;1.00;;
37151;SDS011;23046;50.112;8.952;2023-04-04T00:19:23;1.38;;;1.02;;
37151;SDS011;23046;50.112;8.952;2023-04-04T00:19:33;1.30;;;1.05;;
37151;SDS011;23046;50.112;8.952;2023-04-04T00:19:44;1.30;;;1.00;;
37151;SDS011;23046;50.112;8.952;2023-04-04T00:19:55;1.10;;;0.93;;
37151;SDS011;23046;50.112;8.952;2023-04-04T00:20:07;1.45;;;0.95;;
37151;SDS011;23046;50.112;8.952;2023-04-04T00:20:17;1.50;;;0.90;;
37151;SDS011;23046;50.112;8.952;2023-04-04T00:20:27;1.80;;;1.03;;
37151;SDS011;23046;50.112;8.952;2023-04-04T00:20:37;1.65;;;1.10;;
37151;SDS011;23046;50.112;8.952;2023-04-04T00:20:47;1.43;;;1.10;;
37151;SDS011;23046;50.112;8.952;2023-04-04T00:20:58;1.10;;;1.00;;
37151;SDS011;23046;50.112;8.952;2023-04-04T00:21:08;1.20;;;0.90;;
37151;SDS011;23046;50.112;8.952;2023-04-04T00:21:18;1.83;;;1.10;;
37151;SDS011;23046;50.112;8.952;2023-04-04T00:21:28;3.33;;;1.10;;
37151;SDS011;23046;50.112;8.952;2023-04-04T00:21:39;3.70;;;1.10;;
37151;SDS011;23046;50.112;8.952;2023-04-04T00:21:49;3.55;;;1.00;;
37151;SDS011;23046;50.112;8.952;2023-04-04T00:21:59;1.43;;;0.90;;
37151;SDS011;23046;50.112;8.952;2023-04-04T00:22:10;1.20;;;0.83;;
37151;SDS011;23046;50.112;8.952;2023-04-04T00:22:20;0.95;;;0.85;;
37151;SDS011;23046;50.112;8.952;2023-04-04T00:22:30;1.20;;;1.00;;
37151;SDS011;23046;50.112;8.952;2023-04-04T00:22:41;1.20;;;1.10;;
37151;SDS011;23046;50.112;8.952;2023-04-04T00:22:51;1.10;;;1.00;;
37151;SDS011;23046;50.112;8.952;2023-04-04T00:23:01;1.10;;;1.00;;
37151;SDS011;23046;50.112;8.952;2023-04-04T00:23:11;1.30;;;0.90;;
37151;SDS011;23046;50.112;8.952;2023-04-04T00:23:21;1.05;;;0.80;;
37151;SDS011;23046;50.112;8.952;2023-04-04T00:23:32;1.10;;;0.80;;
37151;SDS011;23046;50.112;8.952;2023-04-04T00:23:42;1.23;;;1.00;;
37151;SDS011;23046;50.112;8.952;2023-04-04T00:23:52;1.37;;;1.00;;
37151;SDS011;23046;50.112;8.952;2023-04-04T00:24:03;2.20;;;1.00;;
37151;SDS011;23046;50.112;8.952;2023-04-04T00:24:13;2.47;;;1.00;;
37151;SDS011;23046;50.112;8.952;2023-04-04T00:24:23;3.05;;;1.02;;
37151;SDS011;23046;50.112;8.952;2023-04-04T00:24:34;2.27;;;1.07;;
37151;SDS011;23046;50.112;8.952;2023-04-04T00:24:44;1.97;;;1.10;;
37151;SDS011;23046;50.112;8.952;2023-04-04T00:24:54;1.40;;;1.10;;
37151;SDS011;23046;50.112;8.952;2023-04-04T00:25:05;1.25;;;1.10;;
37151;SDS011;23046;50.112;8.952;2023-04-04T00:25:15;1.13;;;0.90;;
37151;SDS011;23046;50.112;8.952;2023-04-04T00:25:25;1.43;;;0.90;;
37151;SDS011;23046;50.112;8.952;2023-04-04T00:25:35;1.43;;;0.93;;
37151;SDS011;23046;50.112;8.952;2023-04-04T00:25:52;1.45;;;1.00;;
37151;SDS011;23046;50.112;8.952;2023-04-04T00:26:02;1.10;;;1.00;;
37151;SDS011;23046;50.112;8.952;2023-04-04T00:26:12;1.70;;;1.00;;
37151;SDS011;23046;50.112;8.952;2023-04-04T00:26:23;1.73;;;1.00;;
37151;SDS011;23046;50.112;8.952;2023-04-04T00:26:33;1.60;;;1.00;;
37151;SDS011;23046;50.112;8.952;2023-04-04T00:26:44;1.10;;;1.00;;
37151;SDS011;23046;50.112;8.952;2023-04-04T00:26:54;1.90;;;1.10;;
37151;SDS011;23046;50.112;8.952;2023-04-04T00:27:04;1.67;;;1.03;;
37151;SDS011;23046;50.112;8.952;2023-04-04T00:27:15;1.42;;;0.95;;
37151;SDS011;23046;50.112;8.952;2023-04-04T00:27:25;0.80;;;0.80;;
37151;SDS011;23046;50.112;8.952;2023-04-04T00:27:35;2.03;;;0.97;;
37151;SDS011;23046;50.112;8.952;2023-04-04T00:27:46;2.93;;;1.10;;
37151;SDS011;23046;50.112;8.952;2023-04-04T00:27:56;3.33;;;1.10;;
37151;SDS011;23046;50.112;8.952;2023-04-04T00:28:09;2.05;;;1.10;;
37151;SDS011;23046;50.112;8.952;2023-04-04T00:28:20;1.20;;;1.00;;
37151;SDS011;23046;50.112;8.952;2023-04-04T00:28:30;1.07;;;0.90;;
37151;SDS011;23046;50.112;8.952;2023-04-04T00:28:41;1.00;;;0.85;;
37151;SDS011;23046;50.112;8.952;2023-04-04T00:28:51;0.80;;;0.80;;
37151;SDS011;23046;50.112;8.952;2023-04-04T00:29:02;0.80;;;0.80;;
37151;SDS011;23046;50.112;8.952;2023-04-04T00:29:12;2.00;;;0.80;;
37151;SDS011;23046;50.112;8.952;2023-04-04T00:29:22;2.60;;;1.10;;
37151;SDS011;23046;50.112;8.952;2023-04-04T00:29:33;2.78;;;1.20;;
37151;SDS011;23046;50.112;8.952;2023-04-04T00:29:43;1.67;;;1.30;;
37151;SDS011;23046;50.112;8.952;2023-04-04T00:29:53;1.77;;;1.10;;
37151;SDS011;23046;50.112;8.952;2023-04-04T00:30:04;1.50;;;1.00;;
37151;SDS011;23046;50.112;8.952;2023-04-04T00:30:15;1.40;;;0.97;;
37151;SDS011;23046;50.112;8.952;2023-04-04T00:30:25;0.90;;;0.90;;
37151;SDS011;23046;50.112;8.952;2023-04-04T00:30:35;1.20;;;1.00;;
37151;SDS011;23046;50.112;8.952;2023-04-04T00:30:45;1.60;;;1.10;;
37151;SDS011;23046;50.112;8.952;2023-04-04T00:30:56;2.87;;;1.03;;
37151;SDS011;23046;50.112;8.952;2023-04-04T00:31:06;2.60;;;1.10;;
37151;SDS011;23046;50.112;8.952;2023-04-04T00:31:16;2.23;;;1.10;;
37151;SDS011;23046;50.112;8.952;2023-04-04T00:31:26;1.25;;;1.15;;
37151;SDS011;23046;50.112;8.952;2023-04-04T00:31:37;1.30;;;1.10;;
37151;SDS011;23046;50.112;8.952;2023-04-04T00:31:47;1.50;;;1.00;;
37151;SDS011;23046;50.112;8.952;2023-04-04T00:31:57;1.53;;;1.00;;
37151;SDS011;23046;50.112;8.952;2023-04-04T00:32:07;1.30;;;1.10;;
37151;SDS011;23046;50.112;8.952;2023-04-04T00:32:17;1.20;;;1.10;;
37151;SDS011;23046;50.112;8.952;2023-04-04T00:32:28;1.08;;;0.98;;
37151;SDS011;23046;50.112;8.952;2023-04-04T00:32:38;0.85;;;0.85;;
37151;SDS011;23046;50.112;8.952;2023-04-04T00:32:48;1.17;;;0.93;;
37151;SDS011;23046;50.112;8.952;2023-04-04T00:32:58;1.00;;;0.90;;
37151;SDS011;23046;50.112;8.952;2023-04-04T00:33:10;1.07;;;0.90;;
37151;SDS011;23046;50.112;8.952;2023-04-04T00:33:20;1.03;;;0.83;;
37151;SDS011;23046;50.112;8.952;2023-04-04T00:33:31;1.30;;;0.97;;
37151;SDS011;23046;50.112;8.952;2023-04-04T00:33:41;1.33;;;1.00;;
37151;SDS011;23046;50.112;8.952;2023-04-04T00:33:51;1.20;;;0.90;;
37151;SDS011;23046;50.112;8.952;2023-04-04T00:34:01;1.30;;;0.90;;
37151;SDS011;23046;50.112;8.952;2023-04-04T00:34:11;1.20;;;0.90;;
37151;SDS011;23046;50.112;8.952;2023-04-04T00:34:22;1.60;;;0.93;;
37151;SDS011;23046;50.112;8.952;2023-04-04T00:34:32;1.63;;;0.90;;
37151;SDS011;23046;50.112;8.952;2023-04-04T00:34:42;1.57;;;0.90;;
37151;SDS011;23046;50.112;8.952;2023-04-04T00:34:52;1.70;;;0.87;;
37151;SDS011;23046;50.112;8.952;2023-04-04T00:35:03;1.50;;;0.83;;
37151;SDS011;23046;50.112;8.952;2023-04-04T00:35:13;1.60;;;0.82;;
37151;SDS011;23046;50.112;8.952;2023-04-04T00:35:23;1.50;;;0.93;;
37151;SDS011;23046;50.112;8.952;2023-04-04T00:35:33;1.30;;;1.00;;
37151;SDS011;23046;50.112;8.952;2023-04-04T00:35:43;1.17;;;1.00;;
37151;SDS011;23046;50.112;8.952;2023-04-04T00:35:54;0.90;;;0.90;;
37151;SDS011;23046;50.112;8.952;2023-04-04T00:36:04;0.90;;;0.90;;
37151;SDS011;23046;50.112;8.952;2023-04-04T00:36:14;1.00;;;0.90;;
37151;SDS011;23046;50.112;8.952;2023-04-04T00:36:24;1.03;;;0.93;;
37151;SDS011;23046;50.112;8.952;2023-04-04T00:36:34;1.00;;;0.90;;
37151;SDS011;23046;50.112;8.952;2023-04-04T00:36:45;0.98;;;0.90;;
37151;SDS011;23046;50.112;8.952;2023-04-04T00:36:56;0.90;;;0.90;;
37151;SDS011;23046;50.112;8.952;2023-04-04T00:37:07;1.20;;;0.95;;
37151;SDS011;23046;50.112;8.952;2023-04-04T00:37:21;1.25;;;0.90;;
37151;SDS011;23046;50.112;8.952;2023-04-04T00:37:31;1.50;;;0.85;;
37151;SDS011;23046;50.112;8.952;2023-04-04T00:37:41;1.20;;;0.82;;
37151;SDS011;23046;50.112;8.952;2023-04-04T00:37:52;1.23;;;0.85;;
37151;SDS011;23046;50.112;8.952;2023-04-04T00:38:02;1.10;;;0.80;;
37151;SDS011;23046;50.112;8.952;2023-04-04T00:38:13;1.30;;;1.00;;
37151;SDS011;23046;50.112;8.952;2023-04-04T00:38:23;1.83;;;1.30;;
37151;SDS011;23046;50.112;8.952;2023-04-04T00:38:33;1.90;;;1.30;;
37151;SDS011;23046;50.112;8.952;2023-04-04T00:38:43;1.70;;;1.20;;
37151;SDS011;23046;50.112;8.952;2023-04-04T00:38:54;1.23;;;0.93;;
37151;SDS011;23046;50.112;8.952;2023-04-04T00:39:04;2.13;;;0.95;;
37151;SDS011;23046;50.112;8.952;2023-04-04T00:39:14;2.37;;;1.00;;
37151;SDS011;23046;50.112;8.952;2023-04-04T00:39:25;1.97;;;0.93;;
37151;SDS011;23046;50.112;8.952;2023-04-04T00:39:36;1.35;;;0.98;;
37151;SDS011;23046;50.112;8.952;2023-04-04T00:39:46;1.25;;;1.00;;
37151;SDS011;23046;50.112;8.952;2023-04-04T00:39:57;1.37;;;1.00;;
37151;SDS011;23046;50.112;8.952;2023-04-04T00:40:07;0.98;;;0.90;;
37151;SDS011;23046;50.112;8.952;2023-04-04T00:40:18;1.10;;;0.90;;
37151;SDS011;23046;50.112;8.952;2023-04-04T00:40:28;1.25;;;1.00;;
37151;SDS011;23046;50.112;8.952;2023-04-04T00:40:42;1.40;;;1.00;;
37151;SDS011;23046;50.112;8.952;2023-04-04T00:40:54;1.65;;;1.00;;
37151;SDS011;23046;50.112;8.952;2023-04-04T00:41:05;1.55;;;0.93;;
37151;SDS011;23046;50.112;8.952;2023-04-04T00:41:15;1.50;;;0.87;;
37151;SDS011;23046;50.112;8.952;2023-04-04T00:41:25;1.10;;;0.83;;
37151;SDS011;23046;50.112;8.952;2023-04-04T00:41:36;1.53;;;0.90;;
37151;SDS011;23046;50.112;8.952;2023-04-04T00:41:49;2.70;;;1.02;;
37151;SDS011;23046;50.112;8.952;2023-04-04T00:41:59;3.00;;;1.10;;
37151;SDS011;23046;50.112;8.952;2023-04-04T00:42:09;2.20;;;1.15;;
37151;SDS011;23046;50.112;8.952;2023-04-04T00:42:19;1.90;;;1.00;;
37151;SDS011;23046;50.112;8.952;2023-04-04T00:42:30;1.33;;;0.90;;
37151;SDS011;23046;50.112;8.952;2023-04-04T00:42:42;1.00;;;0.90;;
37151;SDS011;23046;50.112;8.952;2023-04-04T00:42:53;0.90;;;0.90;;
37151;SDS011;23046;50.112;8.952;2023-04-04T00:43:03;1.10;;;1.00;;
37151;SDS011;23046;50.112;8.952;2023-04-04T00:43:14;1.17;;;0.90;;
37151;SDS011;23046;50.112;8.952;2023-04-04T00:43:25;1.23;;;0.90;;
37151;SDS011;23046;50.112;8.952;2023-04-04T00:43:36;1.10;;;0.80;;
37151;SDS011;23046;50.112;8.952;2023-04-04T00:43:47;1.40;;;0.80;;
37151;SDS011;23046;50.112;8.952;2023-04-04T00:43:57;1.60;;;0.85;;
37151;SDS011;23046;50.112;8.952;2023-04-04T00:44:07;1.47;;;0.90;;
37151;SDS011;23046;50.112;8.952;2023-04-04T00:44:18;1.20;;;1.00;;
37151;SDS011;23046;50.112;8.952;2023-04-04T00:44:28;1.20;;;1.10;;
37151;SDS011;23046;50.112;8.952;2023-04-04T00:44:40;1.17;;;1.08;;
37151;SDS011;23046;50.112;8.952;2023-04-04T00:44:50;1.17;;;1.00;;
37151;SDS011;23046;50.112;8.952;2023-04-04T00:45:01;1.27;;;0.90;;
37151;SDS011;23046;50.112;8.952;2023-04-04T00:45:11;1.60;;;0.90;;
37151;SDS011;23046;50.112;8.952;2023-04-04T00:45:22;1.80;;;0.93;;
37151;SDS011;23046;50.112;8.952;2023-04-04T00:45:32;1.60;;;1.00;;
37151;SDS011;23046;50.112;8.952;2023-04-04T00:45:43;1.50;;;1.03;;
37151;SDS011;23046;50.112;8.952;2023-04-04T00:45:53;1.20;;;1.00;;
37151;SDS011;23046;50.112;8.952;2023-04-04T00:46:03;1.13;;;1.02;;
37151;SDS011;23046;50.112;8.952;2023-04-04T00:46:14;1.10;;;1.00;;
37151;SDS011;23046;50.112;8.952;2023-04-04T00:46:26;1.02;;;1.00;;
37151;SDS011;23046;50.112;8.952;2023-04-04T00:46:37;1.27;;;0.93;;
37151;SDS011;23046;50.112;8.952;2023-04-04T00:46:47;1.50;;;1.03;;
37151;SDS011;23046;50.112;8.952;2023-04-04T00:46:57;1.57;;;1.10;;
37151;SDS011;23046;50.112;8.952;2023-04-04T00:47:07;1.27;;;1.00;;
37151;SDS011;23046;50.112;8.952;2023-04-04T00:47:18;1.20;;;1.00;;
37151;SDS011;23046;50.112;8.952;2023-04-04T00:47:31;2.60;;;1.05;;
37151;SDS011;23046;50.112;8.952;2023-04-04T00:47:42;2.20;;;1.00;;
37151;SDS011;23046;50.112;8.952;2023-04-04T00:47:52;1.00;;;0.90;;
37151;SDS011;23046;50.112;8.952;2023-04-04T00:48:04;0.93;;;0.90;;
37151;SDS011;23046;50.112;8.952;2023-04-04T00:48:15;1.58;;;1.00;;
37151;SDS011;23046;50.112;8.952;2023-04-04T00:48:25;2.08;;;0.98;;
37151;SDS011;23046;50.112;8.952;2023-04-04T00:48:37;2.13;;;0.90;;
37151;SDS011;23046;50.112;8.952;2023-04-04T00:48:48;1.90;;;0.80;;
37151;SDS011;23046;50.112;8.952;2023-04-04T00:48:58;1.80;;;0.90;;
37151;SDS011;23046;50.112;8.952;2023-04-04T00:49:08;1.30;;;0.83;;
37151;SDS011;23046;50.112;8.952;2023-04-04T00:49:19;1.63;;;0.90;;
37151;SDS011;23046;50.112;8.952;2023-04-04T00:49:29;1.17;;;1.03;;
37151;SDS011;23046;50.112;8.952;2023-04-04T00:49:39;1.77;;;1.20;;
37151;SDS011;23046;50.112;8.952;2023-04-04T00:49:50;1.63;;;1.20;;
37151;SDS011;23046;50.112;8.952;2023-04-04T00:50:00;2.13;;;1.17;;
37151;SDS011;23046;50.112;8.952;2023-04-04T00:50:12;2.67;;;1.00;;
37151;SDS011;23046;50.112;8.952;2023-04-04T00:50:22;2.67;;;0.90;;
37151;SDS011;23046;50.112;8.952;2023-04-04T00:50:32;1.60;;;1.00;;
37151;SDS011;23046;50.112;8.952;2023-04-04T00:50:43;1.40;;;1.00;;
37151;SDS011;23046;50.112;8.952;2023-04-04T00:50:53;1.27;;;1.10;;
37151;SDS011;23046;50.112;8.952;2023-04-04T00:51:03;1.30;;;0.90;;
37151;SDS011;23046;50.112;8.952;2023-04-04T00:51:14;1.25;;;0.90;;
37151;SDS011;23046;50.112;8.952;2023-04-04T00:51:24;1.27;;;0.90;;
37151;SDS011;23046;50.112;8.952;2023-04-04T00:51:35;1.00;;;0.90;;
37151;SDS011;23046;50.112;8.952;2023-04-04T00:51:45;1.50;;;0.97;;
37151;SDS011;23046;50.112;8.952;2023-04-04T00:51:55;1.70;;;1.00;;
37151;SDS011;23046;50.112;8.952;2023-04-04T00:52:06;2.00;;;1.10;;
37151;SDS011;23046;50.112;8.952;2023-04-04T00:52:17;1.60;;;1.05;;
37151;SDS011;23046;50.112;8.952;2023-04-04T00:52:27;1.80;;;1.23;;
37151;SDS011;23046;50.112;8.952;2023-04-04T00:52:37;1.50;;;1.10;;
37151;SDS011;23046;50.112;8.952;2023-04-04T00:52:47;1.33;;;1.10;;
37151;SDS011;23046;50.112;8.952;2023-04-04T00:52:58;1.05;;;0.98;;
37151;SDS011;23046;50.112;8.952;2023-04-04T00:53:08;1.33;;;1.10;;
37151;SDS011;23046;50.112;8.952;2023-04-04T00:53:18;1.80;;;1.10;;
37151;SDS011;23046;50.112;8.952;2023-04-04T00:53:28;1.80;;;1.00;;
37151;SDS011;23046;50.112;8.952;2023-04-04T00:53:39;1.37;;;0.90;;
37151;SDS011;23046;50.112;8.952;2023-04-04T00:53:49;1.10;;;1.00;;
37151;SDS011;23046;50.112;8.952;2023-04-04T00:53:59;1.10;;;1.00;;
37151;SDS011;23046;50.112;8.952;2023-04-04T00:54:10;0.98;;;0.95;;
37151;SDS011;23046;50.112;8.952;2023-04-04T00:54:21;1.00;;;0.90;;
37151;SDS011;23046;50.112;8.952;2023-04-04T00:54:31;1.10;;;1.00;;
37151;SDS011;23046;50.112;8.952;2023-04-04T00:54:41;1.87;;;0.93;;
37151;SDS011;23046;50.112;8.952;2023-04-04T00:54:53;1.70;;;0.90;;
37151;SDS011;23046;50.112;8.952;2023-04-04T00:55:03;2.60;;;1.00;;
37151;SDS011;23046;50.112;8.952;2023-04-04T00:55:14;1.73;;;1.00;;
37151;SDS011;23046;50.112;8.952;2023-04-04T00:55:24;1.70;;;0.90;;
37151;SDS011;23046;50.112;8.952;2023-04-04T00:55:36;1.83;;;1.00;;
37151;SDS011;23046;50.112;8.952;2023-04-04T00:55:46;2.20;;;1.13;;
37151;SDS011;23046;50.112;8.952;2023-04-04T00:55:57;2.53;;;1.10;;
37151;SDS011;23046;50.112;8.952;2023-04-04T00:56:07;1.85;;;1.08;;
37151;SDS011;23046;50.112;8.952;2023-04-04T00:56:18;2.23;;;1.00;;
37151;SDS011;23046;50.112;8.952;2023-04-04T00:56:30;2.92;;;1.20;;
37151;SDS011;23046;50.112;8.952;2023-04-04T00:56:42;3.60;;;1.10;;
37151;SDS011;23046;50.112;8.952;2023-04-04T00:56:52;3.22;;;1.40;;
37151;SDS011;23046;50.112;8.952;2023-04-04T00:57:04;1.50;;;1.20;;
37151;SDS011;23046;50.112;8.952;2023-04-04T00:57:15;1.40;;;1.20;;
37151;SDS011;23046;50.112;8.952;2023-04-04T00:57:27;0.90;;;0.90;;
37151;SDS011;23046;50.112;8.952;2023-04-04T00:57:38;1.30;;;0.98;;
37151;SDS011;23046;50.112;8.952;2023-04-04T00:57:48;1.40;;;1.00;;
37151;SDS011;23046;50.112;8.952;2023-04-04T00:57:59;1.70;;;0.90;;
37151;SDS011;23046;50.112;8.952;2023-04-04T00:58:09;1.10;;;0.90;;
37151;SDS011;23046;50.112;8.952;2023-04-04T00:58:19;1.17;;;0.90;;
37151;SDS011;23046;50.112;8.952;2023-04-04T00:58:30;1.05;;;0.90;;
37151;SDS011;23046;50.112;8.952;2023-04-04T00:58:40;1.40;;;0.98;;
37151;SDS011;23046;50.112;8.952;2023-04-04T00:58:51;1.35;;;1.00;;
37151;SDS011;23046;50.112;8.952;2023-04-04T00:59:01;1.05;;;0.90;;
37151;SDS011;23046;50.112;8.952;2023-04-04T00:59:11;0.93;;;0.93;;
37151;SDS011;23046;50.112;8.952;2023-04-04T00:59:22;1.30;;;0.90;;
37151;SDS011;23046;50.112;8.952;2023-04-04T00:59:32;1.70;;;1.00;;
37151;SDS011;23046;50.112;8.952;2023-04-04T00:59:43;2.33;;;0.90;;
37151;SDS011;23046;50.112;8.952;2023-04-04T00:59:53;2.00;;;0.90;;
37151;SDS011;23046;50.112;8.952;2023-04-04T01:00:05;1.40;;;1.00;;
37151;SDS011;23046;50.112;8.952;2023-04-04T01:00:15;1.03;;;1.00;;
37151;SDS011;23046;50.112;8.952;2023-04-04T01:00:26;1.07;;;1.03;;
37151;SDS011;23046;50.112;8.952;2023-04-04T01:00:36;1.63;;;1.13;;
37151;SDS011;23046;50.112;8.952;2023-04-04T01:00:46;2.37;;;1.30;;
37151;SDS011;23046;50.112;8.952;2023-04-04T01:00:58;2.33;;;1.20;;
37151;SDS011;23046;50.112;8.952;2023-04-04T01:01:08;1.88;;;1.05;;
37151;SDS011;23046;50.112;8.952;2023-04-04T01:01:22;1.35;;;0.90;;
37151;SDS011;23046;50.112;8.952;2023-04-04T01:01:34;0.90;;;0.80;;
37151;SDS011;23046;50.112;8.952;2023-04-04T01:01:45;1.00;;;0.90;;
37151;SDS011;23046;50.112;8.952;2023-04-04T01:01:55;1.10;;;1.00;;
37151;SDS011;23046;50.112;8.952;2023-04-04T01:02:05;1.40;;;1.05;;
37151;SDS011;23046;50.112;8.952;2023-04-04T01:02:15;1.20;;;1.00;;
37151;SDS011;23046;50.112;8.952;2023-04-04T01:02:26;1.17;;;0.97;;
37151;SDS011;23046;50.112;8.952;2023-04-04T01:02:37;1.10;;;0.95;;
37151;SDS011;23046;50.112;8.952;2023-04-04T01:02:48;1.10;;;1.00;;
37151;SDS011;23046;50.112;8.952;2023-04-04T01:02:59;1.23;;;1.00;;
37151;SDS011;23046;50.112;8.952;2023-04-04T01:03:10;1.60;;;0.90;;
37151;SDS011;23046;50.112;8.952;2023-04-04T01:03:21;2.22;;;1.00;;
37151;SDS011;23046;50.112;8.952;2023-04-04T01:03:32;2.45;;;0.98;;
37151;SDS011;23046;50.112;8.952;2023-04-04T01:03:42;1.67;;;0.90;;